Time;durP1;ratioP1;P1;durP2;ratioP2;P2;SDS_P1;SDS_P2;PMS_P1;PMS_P2;Temp;Humidity;BMP_temperature;BMP_pressure;BME280_temperature;BME280_humidity;BME280_pressure;Samples;Min_cycle;Max_cycle;Signal;HPM_P1;HPM_P2
2022/08/30 00:02:38;;;;;;;14.75;11.55;;;20.40;99.90;;;;;;4131712;28;20158;-60
2022/08/30 00:04:39;;;;;;;16.83;12.35;;;20.40;99.90;;;;;;4130575;28;20042;-61
2022/08/30 00:06:40;;;;;;;16.83;12.05;;;20.40;99.90;;;;;;4131688;28;20100;-62
2022/08/30 00:08:43;;;;;;;13.85;12.45;;;20.40;99.90;;;;;;4130661;28;20077;-61
2022/08/30 00:10:45;;;;;;;12.55;11.25;;;20.30;99.90;;;;;;4131327;28;20107;-61
2022/08/30 00:12:47;;;;;;;16.60;11.98;;;20.30;99.90;;;;;;4130338;28;20038;-61
2022/08/30 00:14:48;;;;;;;19.45;12.18;;;20.30;99.90;;;;;;4131340;28;20085;-60
2022/08/30 00:16:49;;;;;;;13.85;11.88;;;20.30;99.90;;;;;;4130979;28;20076;-61
2022/08/30 00:18:51;;;;;;;15.32;11.65;;;20.20;99.90;;;;;;4130500;28;20081;-61
2022/08/30 00:20:52;;;;;;;17.27;12.65;;;20.30;99.90;;;;;;4131058;28;20030;-61
2022/08/30 00:22:53;;;;;;;13.20;11.40;;;20.20;99.90;;;;;;4130212;28;20097;-61
2022/08/30 00:24:54;;;;;;;17.30;12.52;;;20.20;99.90;;;;;;4130884;28;20046;-62
2022/08/30 00:26:56;;;;;;;14.38;11.93;;;20.20;99.90;;;;;;4130371;28;20112;-61
2022/08/30 00:28:57;;;;;;;14.65;12.20;;;20.10;99.90;;;;;;4131225;28;20555;-61
2022/08/30 00:31:00;;;;;;;14.63;12.35;;;20.10;99.90;;;;;;4130230;28;20042;-61
2022/08/30 00:33:01;;;;;;;13.23;11.35;;;20.10;99.90;;;;;;4131252;28;20030;-61
2022/08/30 00:35:04;;;;;;;17.27;11.88;;;20.10;99.90;;;;;;4129986;28;20042;-61
2022/08/30 00:37:05;;;;;;;19.17;12.95;;;20.10;99.90;;;;;;4131048;28;20046;-61
2022/08/30 00:39:06;;;;;;;16.77;12.18;;;20.10;99.90;;;;;;4129961;28;20030;-61
2022/08/30 00:41:08;;;;;;;15.25;11.50;;;20.10;99.90;;;;;;4131070;28;20446;-62
2022/08/30 00:43:18;;;;;;;13.80;11.43;;;20.10;99.90;;;;;;4129758;28;20093;-61
2022/08/30 00:45:26;;;;;;;15.60;12.35;;;20.10;99.90;;;;;;4130801;28;20109;-61
2022/08/30 00:47:27;;;;;;;14.35;12.50;;;20.10;99.90;;;;;;4129916;28;20082;-61
2022/08/30 00:49:30;;;;;;;17.40;12.10;;;20.10;99.90;;;;;;4130612;28;20031;-62
2022/08/30 00:51:32;;;;;;;18.48;12.82;;;20.10;99.90;;;;;;4130435;28;20093;-61
2022/08/30 00:53:40;;;;;;;15.75;12.57;;;20.10;99.90;;;;;;4130489;28;20046;-61
2022/08/30 00:55:43;;;;;;;14.52;12.02;;;20.10;99.90;;;;;;4130222;28;20014;-62
2022/08/30 00:57:49;;;;;;;16.98;12.57;;;20.10;99.90;;;;;;4130019;28;20030;-61
2022/08/30 00:59:50;;;;;;;15.85;12.35;;;20.10;99.90;;;;;;4130294;28;20525;-61
2022/08/30 01:01:52;;;;;;;15.98;12.45;;;20.20;99.90;;;;;;4129801;28;20050;-61
2022/08/30 01:03:54;;;;;;;15.77;13.00;;;20.10;99.90;;;;;;4130525;28;20234;-61
2022/08/30 01:05:57;;;;;;;15.50;11.85;;;20.10;99.90;;;;;;4129778;28;20073;-63
2022/08/30 01:07:58;;;;;;;13.57;12.18;;;20.10;99.90;;;;;;4130701;28;20092;-61
2022/08/30 01:10:01;;;;;;;18.27;12.23;;;20.10;99.90;;;;;;4129728;28;20097;-62
2022/08/30 01:12:04;;;;;;;14.48;12.18;;;20.10;99.90;;;;;;4129285;28;20030;-62
2022/08/30 01:14:06;;;;;;;17.92;12.38;;;20.10;99.90;;;;;;4129284;28;20038;-61
2022/08/30 01:16:07;;;;;;;17.40;12.43;;;20.10;99.90;;;;;;4130420;28;20100;-61
2022/08/30 01:18:10;;;;;;;15.43;12.35;;;20.10;99.90;;;;;;4129319;28;20482;-61
2022/08/30 01:20:16;;;;;;;16.77;12.75;;;20.10;99.90;;;;;;4130648;28;20383;-61
2022/08/30 01:22:17;;;;;;;15.60;11.75;;;20.00;99.90;;;;;;4129479;28;20046;-63
2022/08/30 01:24:18;;;;;;;15.02;11.57;;;20.00;99.90;;;;;;4130267;28;20050;-62
2022/08/30 01:26:20;;;;;;;14.30;12.35;;;20.00;99.90;;;;;;4129364;28;20030;-62
2022/08/30 01:28:24;;;;;;;12.50;10.93;;;20.00;99.90;;;;;;4129678;28;20018;-62
2022/08/30 01:30:26;;;;;;;14.23;11.25;;;20.10;99.90;;;;;;4129640;28;20030;-62
2022/08/30 01:32:28;;;;;;;12.77;11.23;;;20.10;99.90;;;;;;4129823;28;20081;-61
2022/08/30 01:34:29;;;;;;;16.35;11.75;;;20.10;99.90;;;;;;4129965;28;20038;-61
2022/08/30 01:36:30;;;;;;;16.55;12.48;;;20.10;99.90;;;;;;4128382;28;20529;-60
2022/08/30 01:38:53;;;;;;;13.57;11.73;;;20.10;99.90;;;;;;4129856;28;20509;-62
2022/08/30 01:41:06;;;;;;;14.43;11.82;;;20.10;99.90;;;;;;4129183;28;20031;-62
2022/08/30 01:43:08;;;;;;;14.63;12.60;;;20.10;99.90;;;;;;4129452;28;20042;-61
2022/08/30 01:45:11;;;;;;;15.10;12.05;;;20.10;99.90;;;;;;4128973;28;20037;-62
2022/08/30 01:47:13;;;;;;;15.23;12.27;;;20.10;99.90;;;;;;4130048;28;20368;-61
2022/08/30 01:49:17;;;;;;;17.33;12.50;;;20.10;99.90;;;;;;4129051;28;20088;-61
2022/08/30 01:51:18;;;;;;;16.00;12.57;;;20.00;99.90;;;;;;4129990;28;20030;-62
2022/08/30 01:53:20;;;;;;;17.33;12.88;;;20.10;99.90;;;;;;4128663;28;20478;-60
2022/08/30 01:55:22;;;;;;;14.35;12.60;;;20.00;99.90;;;;;;4130173;28;20030;-60
2022/08/30 01:57:25;;;;;;;22.25;12.70;;;20.00;99.90;;;;;;4128614;28;20022;-60
2022/08/30 01:59:26;;;;;;;14.40;12.90;;;20.10;99.90;;;;;;4129663;28;20411;-61
2022/08/30 02:01:29;;;;;;;17.10;13.25;;;20.10;99.90;;;;;;4128727;28;20038;-60
2022/08/30 02:03:33;;;;;;;17.98;12.82;;;20.10;99.90;;;;;;4129923;28;20058;-60
2022/08/30 02:05:35;;;;;;;16.00;12.35;;;20.10;99.90;;;;;;4128687;28;20482;-61
2022/08/30 02:07:36;;;;;;;16.63;12.35;;;20.10;99.90;;;;;;4129416;28;20034;-61
2022/08/30 02:09:38;;;;;;;13.93;12.50;;;20.00;99.90;;;;;;4128758;28;20023;-60
2022/08/30 02:11:39;;;;;;;13.80;12.00;;;20.00;99.90;;;;;;4129485;28;20734;-61
2022/08/30 02:13:42;;;;;;;17.50;12.52;;;20.00;99.90;;;;;;4128856;28;20034;-61
2022/08/30 02:15:43;;;;;;;17.85;12.13;;;20.00;99.90;;;;;;4129180;28;20055;-60
2022/08/30 02:17:44;;;;;;;18.73;13.80;;;20.00;99.90;;;;;;4128028;28;20018;-60
2022/08/30 02:19:45;;;;;;;16.92;12.93;;;19.90;99.90;;;;;;4128831;28;20474;-60
2022/08/30 02:21:46;;;;;;;18.55;12.50;;;19.90;99.90;;;;;;4129287;28;20030;-60
2022/08/30 02:23:48;;;;;;;13.95;12.30;;;19.90;99.90;;;;;;4128392;28;20090;-60
2022/08/30 02:25:49;;;;;;;16.98;12.27;;;19.90;99.90;;;;;;4129787;28;20034;-60
2022/08/30 02:27:50;;;;;;;17.90;13.07;;;19.90;99.90;;;;;;4128281;28;20034;-61
2022/08/30 02:29:52;;;;;;;19.08;13.30;;;19.90;99.90;;;;;;4129471;28;20052;-60
2022/08/30 02:31:53;;;;;;;17.60;13.35;;;19.80;99.90;;;;;;4128210;28;20074;-60
2022/08/30 02:33:55;;;;;;;18.38;13.55;;;19.80;99.90;;;;;;4129401;28;20076;-60
2022/08/30 02:35:56;;;;;;;17.50;13.63;;;19.70;99.90;;;;;;4128265;28;20030;-61
2022/08/30 02:37:57;;;;;;;18.25;14.73;;;19.70;99.90;;;;;;4129571;28;20430;-60
2022/08/30 02:39:59;;;;;;;20.42;14.48;;;19.60;99.90;;;;;;4128585;28;20047;-60
2022/08/30 02:42:00;;;;;;;19.48;14.70;;;19.70;99.90;;;;;;4129254;28;20050;-60
2022/08/30 02:44:01;;;;;;;15.02;13.45;;;19.60;99.90;;;;;;4128215;28;20100;-60
2022/08/30 02:46:03;;;;;;;21.15;13.68;;;19.60;99.90;;;;;;4127366;28;20038;-60
2022/08/30 02:48:04;;;;;;;18.08;14.13;;;19.60;99.90;;;;;;4127366;28;20038;-60
2022/08/30 02:50:07;;;;;;;15.52;13.85;;;19.70;99.90;;;;;;4127063;28;20093;-61
2022/08/30 02:52:08;;;;;;;17.23;13.45;;;19.70;99.90;;;;;;4127719;28;20030;-61
2022/08/30 02:54:14;;;;;;;19.95;14.32;;;19.80;99.90;;;;;;4127195;28;20855;-60
2022/08/30 02:56:15;;;;;;;14.85;13.32;;;19.80;99.90;;;;;;4127757;28;20077;-61
2022/08/30 02:58:16;;;;;;;16.95;12.95;;;19.80;99.90;;;;;;4127357;28;20034;-60
2022/08/30 03:00:19;;;;;;;19.90;13.75;;;19.90;99.90;;;;;;4127553;28;20081;-62
2022/08/30 03:02:21;;;;;;;17.58;13.48;;;19.90;99.90;;;;;;4127470;28;20422;-60
2022/08/30 03:04:22;;;;;;;21.20;12.57;;;19.90;99.90;;;;;;4127379;28;20081;-59
2022/08/30 03:06:23;;;;;;;17.13;12.65;;;20.00;99.90;;;;;;4127455;28;20073;-59
2022/08/30 03:08:24;;;;;;;17.60;13.02;;;20.00;99.90;;;;;;4127676;28;20474;-63
2022/08/30 03:10:26;;;;;;;18.75;12.75;;;20.00;99.90;;;;;;4127325;28;20026;-60
2022/08/30 03:12:27;;;;;;;13.60;11.35;;;20.00;99.90;;;;;;4127511;28;20058;-60
2022/08/30 03:14:30;;;;;;;15.35;10.52;;;20.10;99.90;;;;;;4127389;28;20089;-59
2022/08/30 03:16:31;;;;;;;14.15;11.75;;;20.10;99.90;;;;;;4127104;28;20070;-60
2022/08/30 03:18:32;;;;;;;14.82;12.70;;;20.10;99.90;;;;;;4127563;28;20100;-59
2022/08/30 03:20:37;;;;;;;16.23;12.18;;;20.10;99.90;;;;;;4127082;28;20046;-60
2022/08/30 03:22:38;;;;;;;13.93;11.68;;;20.00;99.90;;;;;;4127584;28;20030;-60
2022/08/30 03:24:40;;;;;;;18.88;13.35;;;20.00;99.90;;;;;;4125719;28;20580;-60
2022/08/30 03:26:41;;;;;;;17.58;12.35;;;20.00;99.90;;;;;;4127748;28;20055;-60
2022/08/30 03:28:43;;;;;;;19.95;13.55;;;19.90;99.90;;;;;;4126818;28;20077;-60
2022/08/30 03:30:44;;;;;;;17.75;13.57;;;19.80;99.90;;;;;;4127359;28;20093;-60
2022/08/30 03:32:46;;;;;;;18.20;13.13;;;19.70;99.90;;;;;;4126957;28;20080;-61
2022/08/30 03:34:47;;;;;;;19.95;14.60;;;19.70;99.90;;;;;;4127122;28;20022;-60
2022/08/30 03:36:54;;;;;;;16.85;13.27;;;19.70;99.90;;;;;;4127062;28;20030;-61
2022/08/30 03:38:55;;;;;;;15.90;13.65;;;19.70;99.90;;;;;;4127011;28;20595;-63
2022/08/30 03:40:56;;;;;;;18.85;13.88;;;19.80;99.90;;;;;;4127089;28;20077;-60
2022/08/30 03:42:57;;;;;;;16.15;13.25;;;19.80;99.90;;;;;;4126790;28;20127;-60
2022/08/30 03:45:01;;;;;;;18.58;13.55;;;19.70;99.90;;;;;;4127207;28;20080;-61
2022/08/30 03:47:03;;;;;;;16.60;13.23;;;19.70;99.90;;;;;;4127088;28;20022;-60
2022/08/30 03:49:04;;;;;;;19.17;14.18;;;19.70;99.90;;;;;;4127179;28;20521;-60
2022/08/30 03:51:05;;;;;;;17.80;14.20;;;19.70;99.90;;;;;;4126612;28;20089;-60
2022/08/30 03:53:07;;;;;;;25.25;14.15;;;19.70;99.90;;;;;;4127169;28;20038;-60
2022/08/30 03:55:08;;;;;;;16.60;14.18;;;19.60;99.90;;;;;;4126483;28;20097;-59
2022/08/30 03:57:09;;;;;;;16.65;14.32;;;19.70;99.90;;;;;;4127185;28;20038;-61
2022/08/30 03:59:10;;;;;;;17.27;13.75;;;19.60;99.90;;;;;;4126272;28;20081;-62
2022/08/30 04:01:12;;;;;;;18.10;13.88;;;19.60;99.90;;;;;;4129158;28;20470;-60
2022/08/30 04:03:13;;;;;;;20.65;13.88;;;19.60;99.90;;;;;;4129679;28;20042;-60
2022/08/30 04:05:14;;;;;;;16.25;12.93;;;19.60;99.90;;;;;;4128344;28;20073;-60
2022/08/30 04:07:15;;;;;;;21.60;14.38;;;19.60;99.90;;;;;;4129743;28;20038;-61
2022/08/30 04:09:17;;;;;;;15.85;14.18;;;19.50;99.90;;;;;;4129770;28;20046;-61
2022/08/30 04:11:19;;;;;;;19.38;13.95;;;19.50;99.90;;;;;;4129633;28;20046;-60
2022/08/30 04:13:21;;;;;;;15.40;13.70;;;19.50;99.90;;;;;;4129446;28;20489;-64
2022/08/30 04:15:22;;;;;;;18.63;14.63;;;19.50;99.90;;;;;;4129852;28;20038;-61
2022/08/30 04:17:23;;;;;;;15.77;13.70;;;19.50;99.90;;;;;;4128245;28;20433;-61
2022/08/30 04:19:25;;;;;;;16.80;13.55;;;19.50;99.90;;;;;;4129596;28;20030;-62
2022/08/30 04:21:26;;;;;;;20.00;13.18;;;19.50;99.90;;;;;;4129292;28;20026;-61
2022/08/30 04:23:27;;;;;;;15.73;12.27;;;19.50;99.90;;;;;;4129766;28;20097;-60
2022/08/30 04:25:28;;;;;;;16.60;13.02;;;19.50;99.90;;;;;;4129129;28;20034;-61
2022/08/30 04:27:29;;;;;;;17.80;13.52;;;19.50;99.90;;;;;;4129742;28;20097;-62
2022/08/30 04:29:31;;;;;;;17.30;12.88;;;19.50;99.90;;;;;;4129023;28;20050;-61
2022/08/30 04:31:33;;;;;;;20.90;13.32;;;19.50;99.90;;;;;;4129537;28;20104;-61
2022/08/30 04:33:34;;;;;;;15.60;12.63;;;19.50;99.90;;;;;;4129010;28;20073;-61
2022/08/30 04:35:39;;;;;;;15.50;12.02;;;19.50;99.90;;;;;;4129428;28;20046;-61
2022/08/30 04:37:40;;;;;;;18.92;11.98;;;19.50;99.90;;;;;;4129094;28;20093;-61
2022/08/30 04:39:42;;;;;;;14.07;12.23;;;19.50;99.90;;;;;;4129311;28;20104;-59
2022/08/30 04:41:43;;;;;;;14.88;11.73;;;19.50;99.90;;;;;;4129024;28;20026;-60
2022/08/30 04:43:47;;;;;;;21.92;13.15;;;19.50;99.90;;;;;;4128487;28;20117;-62
2022/08/30 04:45:51;;;;;;;17.20;12.68;;;19.50;99.90;;;;;;4128931;28;20088;-61
2022/08/30 04:47:52;;;;;;;15.75;12.63;;;19.60;99.90;;;;;;4128888;28;20015;-60
2022/08/30 04:49:53;;;;;;;15.65;12.25;;;19.50;99.90;;;;;;4128964;28;20030;-61
2022/08/30 04:51:54;;;;;;;22.27;13.10;;;19.60;99.90;;;;;;4128880;28;20038;-62
2022/08/30 04:53:55;;;;;;;26.00;14.52;;;19.50;99.90;;;;;;4128939;28;20034;-61
2022/08/30 04:55:57;;;;;;;15.13;12.88;;;19.60;99.90;;;;;;4128512;28;20022;-61
2022/08/30 04:57:58;;;;;;;20.52;13.45;;;19.60;99.90;;;;;;4128954;28;20100;-60
2022/08/30 05:00:00;;;;;;;14.32;12.73;;;19.50;99.90;;;;;;4128459;28;20031;-62
2022/08/30 05:02:01;;;;;;;16.77;12.43;;;19.50;99.90;;;;;;4129017;28;20097;-61
2022/08/30 05:04:03;;;;;;;15.13;12.65;;;19.50;99.90;;;;;;4128338;28;20034;-62
2022/08/30 05:06:04;;;;;;;16.33;12.05;;;19.60;99.90;;;;;;4129223;28;20376;-61
2022/08/30 05:08:10;;;;;;;15.82;13.35;;;19.60;99.90;;;;;;4128600;28;20034;-61
2022/08/30 05:10:11;;;;;;;16.55;12.57;;;19.70;99.90;;;;;;4128872;28;20030;-61
2022/08/30 05:12:12;;;;;;;17.70;12.23;;;19.80;99.90;;;;;;4128297;28;20900;-62
2022/08/30 05:14:13;;;;;;;14.40;12.05;;;20.00;99.90;;;;;;4128694;28;20038;-62
2022/08/30 05:16:16;;;;;;;15.35;11.35;;;20.00;99.90;;;;;;4128508;28;20027;-61
2022/08/30 05:18:17;;;;;;;17.67;11.68;;;20.00;99.90;;;;;;4128594;28;20328;-61
2022/08/30 05:20:19;;;;;;;15.00;11.30;;;20.00;99.90;;;;;;4128573;28;20038;-61
2022/08/30 05:22:20;;;;;;;19.80;11.98;;;20.00;99.90;;;;;;4128339;28;20158;-61
2022/08/30 05:24:21;;;;;;;16.20;11.02;;;19.90;99.90;;;;;;4128227;28;20050;-61
2022/08/30 05:26:28;;;;;;;13.52;10.75;;;19.90;99.90;;;;;;4128165;28;20418;-62
2022/08/30 05:28:29;;;;;;;17.48;10.88;;;19.90;99.90;;;;;;4128569;28;20034;-61
2022/08/30 05:30:33;;;;;;;15.32;11.32;;;19.90;99.90;;;;;;4127923;28;20046;-61
2022/08/30 05:32:34;;;;;;;14.13;11.25;;;19.90;99.90;;;;;;4128368;28;20030;-60
2022/08/30 05:34:35;;;;;;;15.82;11.38;;;20.00;99.90;;;;;;4127880;28;20371;-61
2022/08/30 05:36:38;;;;;;;14.68;10.85;;;20.20;99.90;;;;;;4128549;28;20022;-61
2022/08/30 05:38:40;;;;;;;11.77;10.57;;;20.50;99.90;;;;;;4127775;28;20081;-60
2022/08/30 05:40:41;;;;;;;18.30;11.50;;;20.80;99.90;;;;;;4128658;28;20038;-60
2022/08/30 05:42:44;;;;;;;15.35;10.75;;;21.10;99.90;;;;;;4126541;28;20624;-61
2022/08/30 05:44:53;;;;;;;17.73;11.13;;;21.40;99.90;;;;;;4127724;28;20052;-61
2022/08/30 05:46:54;;;;;;;13.18;9.98;;;21.80;99.90;;;;;;4127747;28;20034;-61
2022/08/30 05:48:56;;;;;;;11.43;10.23;;;22.40;99.90;;;;;;4128160;28;20085;-61
2022/08/30 05:51:11;;;;;;;11.35;9.43;;;22.80;99.90;;;;;;4127982;28;20030;-62
2022/08/30 05:53:12;;;;;;;11.65;9.48;;;23.40;99.90;;;;;;4128265;28;20042;-61
2022/08/30 05:55:14;;;;;;;12.23;8.75;;;24.00;99.90;;;;;;4127974;28;20114;-62
2022/08/30 05:57:15;;;;;;;12.05;9.27;;;24.50;99.90;;;;;;4127825;28;20034;-61
2022/08/30 05:59:16;;;;;;;13.13;8.45;;;24.70;99.90;;;;;;4127833;28;20034;-61
2022/08/30 06:01:22;;;;;;;9.82;7.55;;;25.10;99.90;;;;;;4128040;28;20054;-62
2022/08/30 06:03:23;;;;;;;8.70;7.82;;;25.50;99.90;;;;;;4128299;28;20046;-61
2022/08/30 06:05:24;;;;;;;11.95;7.30;;;25.90;99.90;;;;;;4127695;28;20034;-61
2022/08/30 06:07:26;;;;;;;14.05;7.45;;;26.20;99.90;;;;;;4128182;28;20113;-61
2022/08/30 06:09:27;;;;;;;11.55;7.45;;;26.50;99.90;;;;;;4127468;28;20092;-61
2022/08/30 06:11:28;;;;;;;9.82;7.75;;;26.40;99.90;;;;;;4128248;28;20101;-61
2022/08/30 06:13:31;;;;;;;8.80;7.07;;;26.50;99.90;;;;;;4127425;28;20038;-60
2022/08/30 06:15:32;;;;;;;8.05;7.20;;;26.20;99.90;;;;;;4127801;28;20030;-62
2022/08/30 06:17:33;;;;;;;9.50;6.82;;;26.20;99.90;;;;;;4127313;28;20042;-61
2022/08/30 06:19:34;;;;;;;10.57;7.63;;;26.20;99.90;;;;;;4128032;28;20038;-60
2022/08/30 06:21:36;;;;;;;8.38;6.68;;;26.00;99.90;;;;;;4127571;28;20030;-59
2022/08/30 06:23:37;;;;;;;13.27;8.43;;;25.70;99.90;;;;;;4127480;28;20046;-61
2022/08/30 06:25:38;;;;;;;10.25;7.13;;;25.60;99.90;;;;;;4127865;28;20034;-61
2022/08/30 06:27:40;;;;;;;11.98;6.97;;;25.80;99.90;;;;;;4127760;28;20111;-61
2022/08/30 06:29:41;;;;;;;8.00;6.57;;;25.90;99.90;;;;;;4127444;28;20114;-61
2022/08/30 06:31:43;;;;;;;8.50;6.70;;;26.00;99.90;;;;;;4127802;28;20038;-63
2022/08/30 06:33:45;;;;;;;8.10;6.22;;;26.00;99.90;;;;;;4127638;28;20027;-61
2022/08/30 06:35:46;;;;;;;9.30;6.50;;;26.00;99.90;;;;;;4127445;28;20035;-61
2022/08/30 06:37:48;;;;;;;10.68;6.90;;;25.90;99.90;;;;;;4127541;28;20124;-62
2022/08/30 06:39:49;;;;;;;11.35;6.97;;;25.50;99.90;;;;;;4127533;28;21164;-61
2022/08/30 06:41:50;;;;;;;20.65;7.90;;;24.80;99.90;;;;;;4127565;28;20077;-61
2022/08/30 06:43:51;;;;;;;14.60;7.55;;;24.30;99.90;;;;;;4126579;28;20101;-60
2022/08/30 06:45:54;;;;;;;8.48;7.40;;;23.90;99.90;;;;;;4127429;28;20134;-61
2022/08/30 06:47:57;;;;;;;14.63;8.95;;;23.90;99.90;;;;;;4126816;28;20410;-61
2022/08/30 06:49:59;;;;;;;11.23;7.90;;;24.20;99.90;;;;;;4127626;28;20093;-61
2022/08/30 06:52:00;;;;;;;13.73;8.07;;;24.40;99.90;;;;;;4127246;28;20085;-60
2022/08/30 06:54:02;;;;;;;14.00;9.93;;;24.60;99.90;;;;;;4127479;28;20049;-61
2022/08/30 06:56:07;;;;;;;19.88;12.57;;;24.80;99.90;;;;;;4126864;28;20014;-62
2022/08/30 06:58:08;;;;;;;21.15;13.35;;;24.80;99.90;;;;;;4127259;28;20089;-61
2022/08/30 07:00:13;;;;;;;25.77;15.48;;;25.00;99.90;;;;;;4127247;28;20089;-60
2022/08/30 07:02:14;;;;;;;32.95;10.27;;;25.40;99.90;;;;;;4127118;28;20026;-61
2022/08/30 07:04:15;;;;;;;20.65;8.70;;;25.60;99.90;;;;;;4126711;28;20034;-62
2022/08/30 07:06:17;;;;;;;24.58;9.63;;;25.30;99.90;;;;;;4126947;28;20022;-60
2022/08/30 07:08:19;;;;;;;33.15;11.40;;;25.50;99.90;;;;;;4126986;28;20035;-61
2022/08/30 07:10:20;;;;;;;57.67;14.65;;;25.40;99.90;;;;;;4127044;28;20030;-61
2022/08/30 07:12:22;;;;;;;35.20;11.27;;;25.60;99.90;;;;;;4127523;28;20038;-61
2022/08/30 07:14:23;;;;;;;27.98;9.65;;;25.40;99.90;;;;;;4126721;28;20035;-63
2022/08/30 07:16:24;;;;;;;21.42;8.13;;;25.60;99.90;;;;;;4127456;28;20034;-61
2022/08/30 07:20:45;;;;;;;26.98;8.02;;;26.20;99.90;;;;;;4127102;28;20081;-61
2022/08/30 07:22:47;;;;;;;27.52;7.82;;;26.30;99.90;;;;;;4126551;28;20474;-61
2022/08/30 07:24:49;;;;;;;26.15;7.10;;;26.80;99.90;;;;;;4127285;28;20434;-61
2022/08/30 07:26:50;;;;;;;18.40;7.10;;;27.30;99.90;;;;;;4126623;28;20030;-62
2022/08/30 07:28:52;;;;;;;21.95;8.30;;;27.40;99.90;;;;;;4127270;28;20026;-61
2022/08/30 07:30:53;;;;;;;15.57;6.43;;;27.40;99.90;;;;;;4126877;28;20038;-60
2022/08/30 07:32:54;;;;;;;11.95;5.55;;;26.90;99.90;;;;;;4127589;28;20109;-61
2022/08/30 07:34:55;;;;;;;8.80;5.28;;;26.60;99.90;;;;;;4127156;28;20334;-61
2022/08/30 07:36:57;;;;;;;14.40;6.75;;;26.20;99.90;;;;;;4130173;28;20549;-61
2022/08/30 07:38:58;;;;;;;13.32;6.43;;;26.10;99.90;;;;;;4130337;28;20038;-61
2022/08/30 07:41:00;;;;;;;16.77;6.05;;;26.50;99.90;;;;;;4129853;28;20116;-62
2022/08/30 07:43:01;;;;;;;11.23;5.28;;;27.00;99.90;;;;;;4128832;28;20038;-61
2022/08/30 07:45:03;;;;;;;11.63;4.70;;;27.40;99.90;;;;;;4129784;28;20054;-60
2022/08/30 07:47:04;;;;;;;9.65;5.35;;;27.70;99.90;;;;;;4130297;28;20434;-61
2022/08/30 07:49:06;;;;;;;8.35;4.35;;;27.90;99.90;;;;;;4129960;28;20085;-62
2022/08/30 07:51:13;;;;;;;8.00;4.75;;;27.90;99.90;;;;;;4130173;28;20487;-61
2022/08/30 07:53:14;;;;;;;10.18;5.05;;;27.70;99.90;;;;;;4129839;28;20046;-63
2022/08/30 07:55:15;;;;;;;5.47;4.53;;;27.60;99.90;;;;;;4130260;28;20023;-61
2022/08/30 07:57:16;;;;;;;5.13;4.63;;;27.60;99.90;;;;;;4128013;28;20030;-61
2022/08/30 07:59:17;;;;;;;7.13;4.72;;;27.90;99.90;;;;;;4130063;28;20089;-62
2022/08/30 08:01:20;;;;;;;5.95;4.65;;;27.60;99.90;;;;;;4129138;28;20076;-62
2022/08/30 08:03:21;;;;;;;6.78;4.65;;;27.20;99.90;;;;;;4129844;28;20018;-62
2022/08/30 08:05:23;;;;;;;6.18;4.45;;;26.80;99.90;;;;;;4129129;28;20034;-61
2022/08/30 08:07:24;;;;;;;5.75;4.60;;;26.50;99.90;;;;;;4129496;28;20084;-62
2022/08/30 08:09:25;;;;;;;8.57;5.07;;;26.20;99.90;;;;;;4129670;28;20038;-61
2022/08/30 08:11:27;;;;;;;6.93;3.85;;;26.00;99.90;;;;;;4129716;28;20046;-61
2022/08/30 08:13:28;;;;;;;7.35;4.60;;;25.90;99.90;;;;;;4129668;28;20046;-61
2022/08/30 08:15:29;;;;;;;5.00;3.85;;;25.80;99.90;;;;;;4129440;28;20030;-61
2022/08/30 08:17:31;;;;;;;7.00;4.78;;;25.70;99.90;;;;;;4129738;28;20038;-64
2022/08/30 08:19:32;;;;;;;7.32;4.90;;;25.70;99.90;;;;;;4129481;28;20054;-62
2022/08/30 08:21:34;;;;;;;5.85;4.32;;;25.60;99.90;;;;;;4129553;28;20038;-60
2022/08/30 08:23:36;;;;;;;6.43;5.28;;;25.60;99.90;;;;;;4129106;28;20042;-60
2022/08/30 08:25:39;;;;;;;7.40;5.05;;;25.50;99.90;;;;;;4129561;28;20046;-62
2022/08/30 08:27:40;;;;;;;5.03;4.57;;;25.80;99.90;;;;;;4129161;28;20026;-61
2022/08/30 08:29:41;;;;;;;6.63;5.53;;;26.00;99.90;;;;;;4129318;28;20109;-61
2022/08/30 08:31:44;;;;;;;8.30;5.40;;;26.00;99.90;;;;;;4128988;28;20046;-62
2022/08/30 08:33:46;;;;;;;7.35;5.20;;;26.00;99.90;;;;;;4129484;28;20018;-64
2022/08/30 08:35:48;;;;;;;8.32;5.50;;;25.90;99.90;;;;;;4128922;28;20034;-61
2022/08/30 08:37:49;;;;;;;5.65;5.03;;;26.10;99.90;;;;;;4129156;28;20038;-62
2022/08/30 08:39:51;;;;;;;6.20;4.90;;;26.10;99.90;;;;;;4128838;28;20081;-62
2022/08/30 08:42:10;;;;;;;5.43;4.68;;;26.20;99.90;;;;;;4129201;28;20486;-60
2022/08/30 08:44:27;;;;;;;7.47;5.63;;;26.50;99.90;;;;;;4128388;28;20050;-61
2022/08/30 08:46:39;;;;;;;8.52;6.28;;;26.70;99.90;;;;;;4129049;28;20050;-61
2022/08/30 08:48:49;;;;;;;8.48;6.28;;;26.60;99.90;;;;;;4127703;28;20477;-61
2022/08/30 08:53:34;;;;;;;11.90;6.78;;;26.50;99.90;;;;;;4128605;28;20377;-60
2022/08/30 08:55:41;;;;;;;17.85;7.32;;;26.40;99.90;;;;;;4129087;28;20466;-61
2022/08/30 08:57:42;;;;;;;10.88;6.45;;;25.90;99.90;;;;;;4128275;28;20343;-61
2022/08/30 08:59:44;;;;;;;8.30;6.47;;;25.80;99.90;;;;;;4128995;28;20474;-60
2022/08/30 09:01:46;;;;;;;11.20;6.18;;;25.90;99.90;;;;;;4128274;28;20026;-60
2022/08/30 09:03:48;;;;;;;10.15;5.63;;;25.80;99.90;;;;;;4128773;28;20414;-61
2022/08/30 09:05:50;;;;;;;7.85;4.97;;;25.80;99.90;;;;;;4128286;28;20100;-61
2022/08/30 09:08:01;;;;;;;7.63;6.25;;;26.00;99.90;;;;;;4128630;28;20100;-60
2022/08/30 09:10:03;;;;;;;9.75;6.65;;;26.30;99.90;;;;;;4128002;28;20030;-61
2022/08/30 09:12:07;;;;;;;6.65;5.80;;;26.20;99.90;;;;;;4128492;28;20632;-61
2022/08/30 09:14:39;;;;;;;7.50;6.65;;;26.20;99.90;;;;;;4128425;28;20434;-61
2022/08/30 09:16:49;;;;;;;6.60;6.00;;;26.10;99.90;;;;;;4123706;28;20436;-62
2022/08/30 09:18:51;;;;;;;10.23;6.40;;;26.10;99.90;;;;;;4127129;28;20034;-61
2022/08/30 09:20:53;;;;;;;7.78;5.85;;;26.40;99.90;;;;;;4128433;28;20030;-61
2022/08/30 09:22:55;;;;;;;7.25;6.35;;;26.70;99.90;;;;;;4128190;28;20479;-61
2022/08/30 09:25:05;;;;;;;11.05;6.60;;;26.70;99.90;;;;;;4128134;28;20038;-62
2022/08/30 09:27:15;;;;;;;7.45;6.50;;;26.50;99.90;;;;;;4127849;28;20046;-60
2022/08/30 09:29:18;;;;;;;11.50;6.65;;;26.40;99.90;;;;;;4128053;28;20372;-62
2022/08/30 09:31:28;;;;;;;6.20;5.32;;;26.50;99.90;;;;;;4128237;28;20077;-60
2022/08/30 09:33:29;;;;;;;;;;;26.40;99.90;;;;;;4128711;28;20073;-61
2022/08/30 09:35:35;;;;;;;6.78;5.55;;;26.40;99.90;;;;;;4128310;28;20255;-61
2022/08/30 09:37:43;;;;;;;9.45;5.15;;;26.70;99.90;;;;;;4127929;28;20085;-62
2022/08/30 09:39:45;;;;;;;10.45;4.88;;;26.90;99.90;;;;;;4128181;28;20072;-59
2022/08/30 09:41:48;;;;;;;10.25;6.47;;;27.20;99.90;;;;;;4127962;28;20030;-61
2022/08/30 09:44:04;;;;;;;7.88;6.32;;;27.30;99.90;;;;;;4128094;28;20476;-61
2022/08/30 09:46:08;;;;;;;8.00;6.35;;;27.00;99.90;;;;;;4127893;28;20050;-60
2022/08/30 09:48:43;;;;;;;7.70;6.53;;;26.80;99.90;;;;;;4128154;28;20425;-61
2022/08/30 09:50:47;;;;;;;13.30;5.90;;;26.60;99.90;;;;;;4115996;28;20104;-63
2022/08/30 09:53:17;;;;;;;8.85;6.38;;;26.60;99.90;;;;;;4127808;28;20034;-61
2022/08/30 09:55:34;;;;;;;7.15;5.20;;;26.60;99.90;;;;;;4127810;28;20035;-60
2022/08/30 09:58:08;;;;;;;6.70;6.10;;;26.80;99.90;;;;;;4127212;28;20089;-61
2022/08/30 10:00:27;;;;;;;8.02;6.07;;;26.90;99.90;;;;;;4127933;28;20377;-61
2022/08/30 10:02:56;;;;;;;9.57;5.47;;;26.90;99.90;;;;;;4127565;28;20054;-62
2022/08/30 10:05:13;;;;;;;6.00;5.07;;;26.80;99.90;;;;;;4128217;28;20034;-60
2022/08/30 10:07:31;;;;;;;6.97;6.28;;;27.00;99.90;;;;;;4127558;28;20309;-61
2022/08/30 10:09:37;;;;;;;7.03;6.32;;;27.00;99.90;;;;;;4127919;28;20039;-61
2022/08/30 10:11:48;;;;;;;6.85;6.22;;;26.90;99.90;;;;;;4127783;28;20038;-61
2022/08/30 10:14:09;;;;;;;;;;;26.80;99.90;;;;;;4128101;28;20022;-61
2022/08/30 10:16:32;;;;;;;12.52;7.43;;;26.70;99.90;;;;;;4122785;28;19906;-61
2022/08/30 10:19:01;;;;;;;9.25;6.63;;;27.00;99.90;;;;;;4127704;28;20022;-61
2022/08/30 10:21:24;;;;;;;10.38;6.78;;;27.30;99.90;;;;;;4117064;28;20101;-61
2022/08/30 10:23:31;;;;;;;9.75;6.38;;;27.00;99.90;;;;;;4127373;28;20036;-61
2022/08/30 10:25:53;;;;;;;7.15;6.03;;;26.90;99.90;;;;;;4127386;28;20406;-61
2022/08/30 10:27:57;;;;;;;6.50;5.85;;;27.00;99.90;;;;;;4127188;28;21120;-61
2022/08/30 10:30:06;;;;;;;6.72;5.85;;;26.90;99.90;;;;;;4127328;28;20399;-61
2022/08/30 10:32:19;;;;;;;9.80;6.50;;;26.80;99.90;;;;;;4127539;28;20101;-61
2022/08/30 10:34:56;;;;;;;8.02;6.32;;;26.80;99.90;;;;;;4127357;28;20026;-63
2022/08/30 10:37:20;;;;;;;7.20;5.78;;;26.90;99.90;;;;;;4126788;28;20034;-62
2022/08/30 10:39:25;;;;;;;9.10;5.70;;;27.00;99.90;;;;;;4127394;28;20032;-62